createdAt,value
2023-02-04T00:00:37.367Z,99.99
2023-02-04T00:03:08.932Z,99.99
2023-02-04T00:05:37.045Z,99.99
2023-02-04T00:08:05.067Z,99.99
2023-02-04T00:10:34.746Z,99.99
2023-02-04T00:13:02.673Z,99.99
2023-02-04T00:15:31.820Z,99.99
2023-02-04T00:18:01.253Z,99.99
2023-02-04T00:20:30.850Z,99.99
2023-02-04T00:22:59.505Z,99.99
2023-02-04T00:25:27.859Z,99.99
2023-02-04T00:27:56.037Z,99.99
2023-02-04T00:30:23.936Z,99.99
2023-02-04T00:32:54.734Z,99.99
2023-02-04T00:35:23.875Z,99.99
2023-02-04T00:37:55.176Z,99.99
2023-02-04T00:40:24.306Z,99.99
2023-02-04T00:42:52.204Z,99.99
2023-02-04T00:45:20.723Z,99.99
2023-02-04T00:47:49.133Z,99.53
2023-02-04T00:50:17.611Z,99.52
2023-02-04T00:52:45.553Z,99.13
2023-02-04T00:55:17.471Z,99.16
2023-02-04T00:57:47.541Z,99.17
2023-02-04T01:00:16.737Z,98.99
2023-02-04T01:02:45.888Z,99.20
2023-02-04T01:05:14.594Z,98.89
2023-02-04T01:07:43.098Z,98.68
2023-02-04T01:10:12.177Z,98.84
2023-02-04T01:12:41.564Z,98.89
2023-02-04T01:15:11.115Z,99.22
2023-02-04T01:17:39.781Z,99.06
2023-02-04T01:20:08.852Z,99.23
2023-02-04T01:22:37.432Z,99.60
2023-02-04T01:25:05.984Z,99.99
2023-02-04T01:27:46.129Z,99.99
2023-02-04T01:30:16.249Z,99.63
2023-02-04T01:32:44.647Z,99.71
2023-02-04T01:35:13.288Z,99.38
2023-02-04T01:37:41.381Z,98.97
2023-02-04T01:40:10.469Z,98.94
2023-02-04T01:42:39.570Z,98.99
2023-02-04T01:45:11.404Z,98.69
2023-02-04T01:47:41.216Z,98.23
2023-02-04T01:50:12.612Z,98.15
2023-02-04T01:52:42.786Z,98.22
2023-02-04T01:55:17.386Z,98.44
2023-02-04T01:57:46.149Z,98.61
2023-02-04T02:00:19.091Z,99.15
2023-02-04T02:02:50.499Z,99.02
2023-02-04T02:05:23.630Z,98.88
2023-02-04T02:07:54.971Z,98.82
2023-02-04T02:10:26.851Z,98.88
2023-02-04T02:12:56.077Z,98.99
2023-02-04T02:15:26.099Z,98.75
2023-02-04T02:17:56.408Z,98.56
2023-02-04T02:20:26.789Z,98.70
2023-02-04T02:23:04.537Z,98.63
2023-02-04T02:25:34.406Z,98.40
2023-02-04T02:28:11.455Z,98.55
2023-02-04T02:30:42.064Z,98.39
2023-02-04T02:33:10.144Z,98.43
2023-02-04T02:35:39.284Z,98.51
2023-02-04T02:38:07.227Z,98.61
2023-02-04T02:40:37.382Z,98.68
2023-02-04T02:43:07.275Z,98.87
2023-02-04T02:45:36.956Z,98.82
2023-02-04T02:48:05.496Z,98.86
2023-02-04T02:50:35.223Z,99.09
2023-02-04T02:53:04.304Z,99.18
2023-02-04T02:55:33.218Z,99.36
2023-02-04T02:58:07.121Z,99.44
2023-02-04T03:00:35.146Z,99.95
2023-02-04T03:03:09.278Z,99.99
2023-02-04T03:05:42.297Z,99.99
2023-02-04T03:08:13.123Z,99.99
2023-02-04T03:10:41.443Z,99.99
2023-02-04T03:13:12.117Z,99.99
2023-02-04T03:15:42.009Z,99.99
2023-02-04T03:18:10.564Z,99.99
2023-02-04T03:20:40.138Z,99.99
2023-02-04T03:23:09.108Z,99.99
2023-02-04T03:25:37.239Z,99.99
2023-02-04T03:28:06.293Z,99.99
2023-02-04T03:30:35.715Z,99.99
2023-02-04T03:33:03.703Z,99.99
2023-02-04T03:35:32.659Z,99.99
2023-02-04T03:38:00.577Z,99.99
2023-02-04T03:40:31.120Z,99.99
2023-02-04T03:43:00.289Z,99.99
2023-02-04T03:45:32.423Z,99.99
2023-02-04T03:48:05.510Z,99.99
2023-02-04T03:50:33.719Z,99.99
2023-02-04T03:53:01.786Z,99.99
2023-02-04T03:55:32.730Z,99.99
2023-02-04T03:58:00.656Z,99.99
2023-02-04T04:00:29.894Z,99.99
2023-02-04T04:02:59.362Z,99.99
2023-02-04T04:05:28.988Z,99.99
2023-02-04T04:07:57.097Z,99.99
2023-02-04T04:10:25.456Z,99.99
2023-02-04T04:12:53.427Z,99.99
2023-02-04T04:15:21.321Z,99.99
2023-02-04T04:17:50.313Z,99.99
2023-02-04T04:20:18.593Z,99.99
2023-02-04T04:22:48.336Z,99.99
2023-02-04T04:25:17.391Z,99.99
2023-02-04T04:27:45.427Z,99.99
2023-02-04T04:30:14.262Z,99.99
2023-02-04T04:32:42.297Z,99.99
2023-02-04T04:35:10.375Z,99.99
2023-02-04T04:37:39.184Z,99.99
2023-02-04T04:40:10.356Z,97.22
2023-02-04T04:42:39.205Z,96.61
2023-02-04T04:45:09.889Z,97.34
2023-02-04T04:47:38.694Z,97.25
2023-02-04T04:50:07.687Z,96.69
2023-02-04T04:52:35.683Z,96.99
2023-02-04T04:55:03.823Z,96.91
2023-02-04T04:57:34.080Z,97.51
2023-02-04T05:00:01.998Z,97.27
2023-02-04T05:02:30.397Z,98.02
2023-02-04T05:04:59.367Z,97.40
2023-02-04T05:07:28.509Z,97.99
2023-02-04T05:09:56.417Z,97.83
2023-02-04T05:12:25.246Z,98.16
2023-02-04T05:14:54.520Z,98.25
2023-02-04T05:17:22.942Z,98.39
2023-02-04T05:19:51.260Z,98.52
2023-02-04T05:22:19.636Z,98.31
2023-02-04T05:24:48.135Z,98.65
2023-02-04T05:27:16.113Z,98.97
2023-02-04T05:29:44.021Z,98.55
2023-02-04T05:32:14.219Z,98.82
2023-02-04T05:34:42.267Z,98.83
2023-02-04T05:37:10.176Z,99.31
2023-02-04T05:39:39.173Z,99.30
2023-02-04T05:42:07.101Z,99.46
2023-02-04T05:44:35.485Z,99.66
2023-02-04T05:47:03.837Z,99.96
2023-02-04T05:49:33.204Z,99.99
2023-02-04T05:52:01.163Z,99.99
2023-02-04T05:54:29.870Z,99.99
2023-02-04T05:56:57.854Z,99.99
2023-02-04T05:59:26.094Z,99.99
2023-02-04T06:01:55.089Z,99.99
2023-02-04T06:04:23.145Z,99.99
2023-02-04T06:06:52.921Z,99.99
2023-02-04T06:09:21.388Z,99.99
2023-02-04T06:11:49.365Z,99.99
2023-02-04T06:14:17.285Z,99.99
2023-02-04T06:16:46.221Z,99.99
2023-02-04T06:19:14.610Z,99.99
2023-02-04T06:21:43.128Z,99.99
2023-02-04T06:24:12.485Z,99.99
2023-02-04T06:26:40.455Z,99.99
2023-02-04T06:29:08.977Z,99.99
2023-02-04T06:31:38.445Z,99.99
2023-02-04T06:34:07.004Z,99.99
2023-02-04T06:36:35.407Z,99.99
2023-02-04T06:39:03.279Z,99.99
2023-02-04T06:41:32.923Z,99.99
2023-02-04T06:44:01.303Z,99.99
2023-02-04T06:46:29.361Z,99.99
2023-02-04T06:48:57.533Z,99.99
2023-02-04T06:51:26.857Z,99.99
2023-02-04T06:53:54.701Z,99.99
2023-02-04T06:56:22.668Z,99.99
2023-02-04T06:58:51.948Z,99.99
2023-02-04T07:01:20.352Z,99.99
2023-02-04T07:03:48.664Z,99.99
2023-02-04T07:06:18.209Z,99.99
2023-02-04T07:08:47.476Z,99.99
2023-02-04T07:11:16.395Z,99.99
2023-02-04T07:13:44.308Z,99.99
2023-02-04T07:16:14.149Z,99.99
2023-02-04T07:18:43.518Z,99.99
2023-02-04T07:21:11.391Z,99.99
2023-02-04T07:23:39.817Z,99.99
2023-02-04T07:26:08.205Z,99.99
2023-02-04T07:28:36.987Z,99.99
2023-02-04T07:31:05.068Z,99.99
2023-02-04T07:33:34.883Z,99.99
2023-02-04T07:36:02.804Z,99.99
2023-02-04T07:38:32.745Z,99.99
2023-02-04T07:41:00.704Z,99.99
2023-02-04T07:43:28.899Z,99.99
2023-02-04T07:45:56.940Z,99.99
2023-02-04T07:48:25.736Z,99.99
2023-02-04T07:50:55.021Z,99.99
2023-02-04T07:53:23.370Z,99.99
2023-02-04T07:55:51.867Z,99.99
2023-02-04T07:58:19.862Z,99.99
2023-02-04T08:00:47.796Z,99.99
2023-02-04T08:03:16.240Z,99.99
2023-02-04T08:05:44.143Z,99.99
2023-02-04T08:08:13.478Z,99.99
2023-02-04T08:10:41.565Z,99.99
2023-02-04T08:13:09.679Z,99.99
2023-02-04T08:15:37.652Z,99.99
2023-02-04T08:18:06.922Z,99.99
2023-02-04T08:20:34.994Z,99.99
2023-02-04T08:23:03.474Z,99.99
2023-02-04T08:25:32.894Z,99.99
2023-02-04T08:28:01.009Z,99.99
2023-02-04T08:30:28.995Z,99.99
2023-02-04T08:32:57.559Z,99.99
2023-02-04T08:35:25.440Z,99.99
2023-02-04T08:37:53.376Z,99.99
2023-02-04T08:40:21.680Z,99.99
2023-02-04T08:42:51.051Z,99.71
2023-02-04T08:45:19.451Z,99.99
2023-02-04T08:47:48.014Z,99.57
2023-02-04T08:50:16.168Z,99.72
2023-02-04T08:52:45.056Z,98.48
2023-02-04T08:55:13.093Z,98.85
2023-02-04T08:57:40.983Z,97.55
2023-02-04T09:00:13.281Z,97.01
2023-02-04T09:02:41.441Z,95.90
2023-02-04T09:05:10.098Z,96.25
2023-02-04T09:07:38.109Z,95.55
2023-02-04T09:10:06.487Z,95.36
2023-02-04T09:12:36.090Z,95.67
2023-02-04T09:15:04.161Z,95.16
2023-02-04T09:17:34.517Z,94.98
2023-02-04T09:20:03.360Z,95.19
2023-02-04T09:22:31.441Z,95.07
2023-02-04T09:24:59.821Z,94.88
2023-02-04T09:27:27.757Z,94.77
2023-02-04T09:29:55.647Z,94.59
2023-02-04T09:32:23.799Z,93.75
2023-02-04T09:34:54.222Z,94.07
2023-02-04T09:37:21.969Z,93.95
2023-02-04T09:39:50.377Z,93.93
2023-02-04T09:42:27.785Z,91.78
2023-02-04T09:44:55.892Z,91.18
2023-02-04T09:47:26.487Z,91.46
2023-02-04T09:49:56.438Z,90.17
2023-02-04T09:52:24.959Z,90.20
2023-02-04T09:54:53.827Z,90.79
2023-02-04T09:57:21.891Z,90.59
2023-02-04T09:59:51.963Z,89.72
2023-02-04T10:02:25.764Z,89.25
2023-02-04T10:04:58.627Z,89.05
2023-02-04T10:07:28.671Z,90.28
2023-02-04T10:09:57.009Z,89.79
2023-02-04T10:12:26.012Z,87.46
2023-02-04T10:14:54.524Z,88.17
2023-02-04T10:17:23.970Z,88.38
2023-02-04T10:19:51.984Z,87.95
2023-02-04T10:22:23.799Z,88.49
2023-02-04T10:24:51.893Z,87.65
2023-02-04T10:27:20.380Z,87.18
2023-02-04T10:29:58.325Z,86.96
2023-02-04T10:32:29.582Z,86.89
2023-02-04T10:35:00.668Z,86.55
2023-02-04T10:37:30.755Z,85.97
2023-02-04T10:39:59.213Z,85.85
2023-02-04T10:42:30.447Z,86.69
2023-02-04T10:44:59.227Z,85.88
2023-02-04T10:47:31.737Z,85.20
2023-02-04T10:50:04.699Z,84.50
2023-02-04T10:52:40.007Z,84.48
2023-02-04T10:55:12.388Z,84.61
2023-02-04T10:57:42.763Z,83.56
2023-02-04T11:00:18.058Z,84.05
2023-02-04T11:02:52.593Z,84.60
2023-02-04T11:05:23.479Z,84.95
2023-02-04T11:07:54.000Z,83.48
2023-02-04T11:10:24.716Z,82.93
2023-02-04T11:13:03.469Z,84.62
2023-02-04T11:15:46.387Z,84.64
2023-02-04T11:18:29.988Z,83.61
2023-02-04T11:21:02.420Z,83.85
2023-02-04T11:23:35.861Z,83.54
2023-02-04T11:26:08.124Z,83.48
2023-02-04T11:28:49.018Z,82.95
2023-02-04T11:31:30.762Z,82.69
2023-02-04T11:34:12.286Z,81.22
2023-02-04T11:37:05.406Z,81.60
2023-02-04T11:39:38.264Z,81.41
2023-02-04T11:42:08.361Z,81.56
2023-02-04T11:44:36.414Z,80.95
2023-02-04T11:47:10.374Z,80.58
2023-02-04T11:49:38.482Z,80.36
2023-02-04T11:52:09.006Z,81.40
2023-02-04T11:54:39.798Z,81.57
2023-02-04T11:57:07.998Z,81.66
2023-02-04T11:59:36.451Z,82.94
2023-02-04T12:02:16.023Z,82.21
2023-02-04T12:04:53.131Z,82.05
2023-02-04T12:07:26.386Z,82.18
2023-02-04T12:09:56.429Z,80.92
2023-02-04T12:12:27.037Z,80.31
2023-02-04T12:15:00.289Z,80.21
2023-02-04T12:17:28.275Z,81.68
2023-02-04T12:19:56.164Z,80.88
2023-02-04T12:22:25.061Z,81.18
2023-02-04T12:24:53.450Z,81.24
2023-02-04T12:27:23.209Z,82.05
2023-02-04T12:29:51.998Z,81.71
2023-02-04T12:32:19.886Z,81.43
2023-02-04T12:34:48.306Z,80.82
2023-02-04T12:37:16.620Z,81.78
2023-02-04T12:39:44.579Z,81.70
2023-02-04T12:42:12.444Z,81.65
2023-02-04T12:44:42.959Z,81.42
2023-02-04T12:47:10.867Z,82.40
2023-02-04T12:49:39.265Z,81.80
2023-02-04T12:52:07.982Z,81.64
2023-02-04T12:54:35.980Z,81.58
2023-02-04T12:57:03.955Z,81.45
2023-02-04T12:59:32.886Z,81.50
2023-02-04T13:02:02.194Z,80.25
2023-02-04T13:04:30.588Z,80.46
2023-02-04T13:06:59.155Z,81.84
2023-02-04T13:09:28.113Z,81.19
2023-02-04T13:11:56.009Z,79.77
2023-02-04T13:14:26.602Z,80.14
2023-02-04T13:16:54.653Z,80.51
2023-02-04T13:19:23.939Z,79.43
2023-02-04T13:21:52.725Z,79.71
2023-02-04T13:24:20.568Z,76.88
2023-02-04T13:26:48.932Z,75.59
2023-02-04T13:29:17.400Z,75.42
2023-02-04T13:31:45.585Z,75.67
2023-02-04T13:34:13.486Z,75.07
2023-02-04T13:36:44.566Z,73.41
2023-02-04T13:39:12.744Z,73.73
2023-02-04T13:41:40.936Z,73.72
2023-02-04T13:44:09.837Z,74.22
2023-02-04T13:46:37.798Z,75.05
2023-02-04T13:49:06.211Z,76.63
2023-02-04T13:51:34.743Z,77.49
2023-02-04T13:54:04.169Z,78.30
2023-02-04T13:56:33.397Z,81.04
2023-02-04T13:59:01.812Z,81.66
2023-02-04T14:01:30.123Z,81.49
2023-02-04T14:03:58.040Z,80.70
2023-02-04T14:06:33.674Z,80.69
2023-02-04T14:09:05.738Z,81.04
2023-02-04T14:11:33.704Z,79.71
2023-02-04T14:14:01.705Z,80.31
2023-02-04T14:16:30.615Z,80.02
2023-02-04T14:18:58.567Z,80.23
2023-02-04T14:21:27.218Z,79.06
2023-02-04T14:23:55.577Z,78.74
2023-02-04T14:26:24.947Z,80.97
2023-02-04T14:28:53.381Z,79.60
2023-02-04T14:31:21.764Z,79.24
2023-02-04T14:33:50.458Z,78.74
2023-02-04T14:36:19.130Z,77.43
2023-02-04T14:38:47.598Z,79.53
2023-02-04T14:41:17.393Z,79.31
2023-02-04T14:43:47.624Z,79.75
2023-02-04T14:46:15.643Z,80.36
2023-02-04T14:48:45.449Z,80.84
2023-02-04T14:51:14.523Z,81.84
2023-02-04T14:53:48.078Z,82.64
2023-02-04T14:56:17.665Z,82.45
2023-02-04T14:58:46.949Z,83.09
2023-02-04T15:01:15.316Z,82.35
2023-02-04T15:03:43.784Z,82.24
2023-02-04T15:06:13.630Z,82.11
2023-02-04T15:08:41.547Z,82.88
2023-02-04T15:11:10.684Z,83.09
2023-02-04T15:13:38.547Z,83.77
2023-02-04T15:16:08.373Z,83.29
2023-02-04T15:18:37.452Z,83.27
2023-02-04T15:21:05.538Z,82.99
2023-02-04T15:23:34.365Z,83.09
2023-02-04T15:26:02.280Z,82.90
2023-02-04T15:28:31.393Z,84.67
2023-02-04T15:31:00.007Z,83.90
2023-02-04T15:33:29.366Z,84.41
2023-02-04T15:35:57.773Z,84.20
2023-02-04T15:38:26.645Z,84.40
2023-02-04T15:40:54.558Z,84.61
2023-02-04T15:43:22.915Z,85.22
2023-02-04T15:45:51.350Z,85.86
2023-02-04T15:48:20.163Z,85.03
2023-02-04T15:50:49.428Z,85.43
2023-02-04T15:53:18.759Z,85.23
2023-02-04T15:55:46.873Z,85.49
2023-02-04T15:58:15.925Z,85.97
2023-02-04T16:00:44.627Z,85.76
2023-02-04T16:03:12.723Z,86.22
2023-02-04T16:05:41.048Z,85.84
2023-02-04T16:08:10.586Z,85.74
2023-02-04T16:10:38.488Z,86.96
2023-02-04T16:13:07.483Z,87.93
2023-02-04T16:15:35.598Z,88.31
2023-02-04T16:18:04.545Z,87.56
2023-02-04T16:20:32.920Z,88.79
2023-02-04T16:23:02.276Z,89.14
2023-02-04T16:25:32.265Z,89.87
2023-02-04T16:28:01.346Z,90.12
2023-02-04T16:30:29.316Z,89.94
2023-02-04T16:32:57.941Z,89.63
2023-02-04T16:35:27.620Z,90.13
2023-02-04T16:37:55.524Z,90.64
2023-02-04T16:40:23.892Z,92.47
2023-02-04T16:42:54.096Z,92.52
2023-02-04T16:45:23.990Z,93.02
2023-02-04T16:47:52.647Z,92.28
2023-02-04T16:50:22.632Z,92.11
2023-02-04T16:52:50.698Z,92.29
2023-02-04T16:55:18.528Z,92.52
2023-02-04T16:57:47.433Z,92.44
2023-02-04T17:00:17.425Z,93.81
2023-02-04T17:02:45.894Z,93.13
2023-02-04T17:05:14.364Z,92.23
2023-02-04T17:07:42.372Z,92.16
2023-02-04T17:10:10.840Z,93.55
2023-02-04T17:12:39.749Z,92.82
2023-02-04T17:15:08.265Z,92.97
2023-02-04T17:17:38.220Z,92.64
2023-02-04T17:20:06.998Z,93.00
2023-02-04T17:22:35.025Z,94.13
2023-02-04T17:25:02.984Z,93.95
2023-02-04T17:27:31.798Z,94.03
2023-02-04T17:29:59.820Z,93.92
2023-02-04T17:32:27.892Z,93.79
2023-02-04T17:34:58.194Z,94.19
2023-02-04T17:37:26.236Z,94.09
2023-02-04T17:39:54.853Z,94.09
2023-02-04T17:42:22.832Z,94.44
2023-02-04T17:44:51.039Z,95.26
2023-02-04T17:47:19.868Z,94.70
2023-02-04T17:49:47.905Z,94.46
2023-02-04T17:52:17.825Z,94.14
2023-02-04T17:54:45.889Z,94.33
2023-02-04T17:57:19.269Z,94.58
2023-02-04T17:59:49.204Z,95.58
2023-02-04T18:02:26.240Z,95.22
2023-02-04T18:04:57.029Z,95.91
2023-02-04T18:07:26.869Z,96.28
2023-02-04T18:10:11.213Z,95.54
2023-02-04T18:12:39.155Z,96.13
2023-02-04T18:15:25.047Z,96.20
2023-02-04T18:17:54.283Z,96.78
2023-02-04T18:20:22.953Z,97.22
2023-02-04T18:22:56.819Z,97.21
2023-02-04T18:25:29.072Z,97.09
2023-02-04T18:28:02.190Z,97.06
2023-02-04T18:30:30.708Z,97.08
2023-02-04T18:32:59.304Z,97.46
2023-02-04T18:35:44.351Z,97.01
2023-02-04T18:38:25.365Z,97.32
2023-02-04T18:41:00.105Z,97.38
2023-02-04T18:43:29.597Z,97.59
2023-02-04T18:46:02.503Z,97.86
2023-02-04T18:49:05.275Z,98.24
2023-02-04T18:51:36.638Z,98.32
2023-02-04T18:54:33.325Z,98.34
2023-02-04T18:57:20.600Z,97.56
2023-02-04T18:59:48.773Z,97.70
2023-02-04T19:02:36.298Z,97.85
2023-02-04T19:05:19.140Z,98.29
2023-02-04T19:07:51.861Z,97.91
2023-02-04T19:10:29.480Z,98.40
2023-02-04T19:13:12.063Z,98.45
2023-02-04T19:15:40.647Z,98.74
2023-02-04T19:18:22.810Z,98.19
2023-02-04T19:20:51.180Z,99.06
2023-02-04T19:23:21.332Z,98.81
2023-02-04T19:25:53.453Z,98.73
2023-02-04T19:28:28.890Z,98.04
2023-02-04T19:31:02.681Z,98.31
2023-02-04T19:33:40.090Z,98.37
2023-02-04T19:36:30.773Z,98.72
2023-02-04T19:39:01.114Z,98.50
2023-02-04T19:41:38.740Z,98.19
2023-02-04T19:44:28.110Z,98.01
2023-02-04T19:46:59.074Z,98.16
2023-02-04T19:49:30.832Z,97.82
2023-02-04T19:52:01.202Z,98.13
2023-02-04T19:54:38.505Z,98.66
2023-02-04T19:57:20.458Z,98.88
2023-02-04T19:59:48.532Z,99.36
2023-02-04T20:02:29.697Z,99.38
2023-02-04T20:04:57.650Z,99.50
2023-02-04T20:07:27.323Z,99.80
2023-02-04T20:10:00.691Z,99.99
2023-02-04T20:12:30.821Z,99.54
2023-02-04T20:15:04.259Z,99.48
2023-02-04T20:17:40.480Z,99.00
2023-02-04T20:20:26.132Z,99.40
2023-02-04T20:22:56.502Z,99.18
2023-02-04T20:25:45.571Z,98.86
2023-02-04T20:28:41.011Z,98.65
2023-02-04T20:31:24.832Z,99.12
2023-02-04T20:33:55.021Z,99.28
2023-02-04T20:36:42.878Z,99.99
2023-02-04T20:39:44.091Z,99.73
2023-02-04T20:42:34.204Z,99.70
2023-02-04T20:45:13.522Z,99.80
2023-02-04T20:47:42.455Z,99.48
2023-02-04T20:50:41.762Z,99.24
2023-02-04T20:53:37.433Z,99.69
2023-02-04T20:56:21.977Z,99.22
2023-02-04T20:58:51.431Z,99.55
2023-02-04T21:01:28.044Z,99.69
2023-02-04T21:03:58.297Z,99.99
2023-02-04T21:06:29.470Z,99.85
2023-02-04T21:08:59.240Z,99.81
2023-02-04T21:11:28.053Z,99.70
2023-02-04T21:13:56.546Z,99.71
2023-02-04T21:16:28.885Z,99.99
2023-02-04T21:18:57.165Z,99.99
2023-02-04T21:21:26.877Z,99.99
2023-02-04T21:23:56.176Z,99.99
2023-02-04T21:26:24.110Z,99.99
2023-02-04T21:28:52.943Z,99.99
2023-02-04T21:31:20.942Z,99.99
2023-02-04T21:33:50.858Z,99.99
2023-02-04T21:36:18.941Z,99.99
2023-02-04T21:38:47.659Z,99.99
2023-02-04T21:41:16.532Z,99.99
2023-02-04T21:43:45.608Z,99.99
2023-02-04T21:46:13.534Z,99.99
2023-02-04T21:48:41.971Z,99.99
2023-02-04T21:51:11.881Z,99.99
2023-02-04T21:53:39.699Z,99.99
2023-02-04T21:56:08.034Z,99.99
2023-02-04T21:58:36.565Z,99.99
2023-02-04T22:01:04.459Z,99.99
2023-02-04T22:03:32.455Z,99.99
2023-02-04T22:06:00.585Z,99.99
2023-02-04T22:08:29.989Z,99.99
2023-02-04T22:10:58.514Z,99.99
2023-02-04T22:13:26.458Z,99.99
2023-02-04T22:15:54.919Z,99.99
2023-02-04T22:18:23.078Z,99.99
2023-02-04T22:20:51.620Z,99.99
2023-02-04T22:23:19.631Z,99.99
2023-02-04T22:25:49.706Z,99.99
2023-02-04T22:28:18.281Z,99.99
2023-02-04T22:30:46.355Z,99.99
2023-02-04T22:33:14.330Z,99.99
2023-02-04T22:35:43.405Z,99.99
2023-02-04T22:38:11.405Z,99.99
2023-02-04T22:40:40.292Z,99.99
2023-02-04T22:43:10.054Z,99.99
2023-02-04T22:45:38.068Z,99.99
2023-02-04T22:48:06.849Z,99.99
2023-02-04T22:50:34.720Z,99.99
2023-02-04T22:53:02.559Z,99.99
2023-02-04T22:55:31.529Z,99.99
2023-02-04T22:57:59.489Z,99.99
2023-02-04T23:00:29.644Z,99.99
2023-02-04T23:02:58.225Z,99.99
2023-02-04T23:05:26.463Z,99.99
2023-02-04T23:07:54.386Z,99.99
2023-02-04T23:10:23.403Z,99.99
2023-02-04T23:12:51.336Z,99.99
2023-02-04T23:15:19.915Z,99.99
2023-02-04T23:17:49.659Z,99.99
2023-02-04T23:20:19.626Z,99.99
2023-02-04T23:22:48.069Z,99.99
2023-02-04T23:25:16.198Z,99.99
2023-02-04T23:27:44.164Z,99.99
2023-02-04T23:30:13.503Z,99.99
2023-02-04T23:32:42.067Z,99.99
2023-02-04T23:35:12.342Z,99.99
2023-02-04T23:37:40.263Z,99.99
2023-02-04T23:40:09.108Z,99.99
2023-02-04T23:42:38.293Z,99.99
2023-02-04T23:45:07.048Z,99.99
2023-02-04T23:47:36.025Z,99.99
2023-02-04T23:50:04.171Z,99.99
2023-02-04T23:52:33.958Z,99.99
2023-02-04T23:55:02.362Z,99.99
2023-02-04T23:57:30.551Z,99.99
2023-02-04T23:59:58.986Z,99.99
